CheckWX is a tool to help pilots better visualize weather data.  It is not intended as a substitute for an official pre-flight weather briefing.

09:07:54 UTC

KHTO METAR
East Hampton Airport
East Hampton, New York, USA
Current

33 mins ago

KHTO 220835Z AUTO 28004KT 10SM CLR 03/M04 A3019 RMK AO2 T00281042
Observed
Feb-22 @ 08:35 UTC
Wind
  • 280° at 4 KTS
Visibility
10 SM
Flight Rules
VFR
Cloud Levels
  • Clear skies
Temperature
C / 37°F
Dewpoint
-4°C / 25°F
Humidity
60%
Altimeter
30.19" Hg
Pressure
1022.32 hPa
Previous

53 mins ago

KHTO 220815Z AUTO 27003KT 10SM CLR 02/M04 A3019 RMK AO2 T00231040
Observed
Feb-22 @ 08:15 UTC
Wind
  • 270° at 3 KTS
Visibility
10 SM
Flight Rules
VFR
Cloud Levels
  • Clear skies
Temperature
C / 36°F
Dewpoint
-4°C / 25°F
Humidity
65%
Altimeter
30.19" Hg
Pressure
1022.32 hPa
Previous

1 hour ago

KHTO 220755Z AUTO 27004KT 10SM CLR 03/M04 A3018 RMK AO2 T00271040
Observed
Feb-22 @ 07:55 UTC
Wind
  • 270° at 4 KTS
Visibility
10 SM
Flight Rules
VFR
Cloud Levels
  • Clear skies
Temperature
C / 37°F
Dewpoint
-4°C / 25°F
Humidity
60%
Altimeter
30.18" Hg
Pressure
1022.02 hPa